tititudorancea.com
Station Historical Data
Daily Summary for April 11, 2018 Units:  Metric    English   Both
« Previous Day
Next Day »
Daily Weekly Monthly Yearly Custom
  High: Low: Average:
Temperature: -17.8 °C 15 °C 20.1 °C
Dew Point: -17.8 °C 8.2 °C 13.1 °C
Humidity: Humidity % 26 % 67 %
Wind Speed: 0 km/h 0 km/h 3.7 km/h
Wind Gust: 0 km/h - -
Wind:- - SSW
Pressure: 0 hPa 1006 hPa -
Precipitation: 0 mm    
Historical Graphs
 
 
Ararat weather Find more about Weather in Ararat, AU


 



 


Tabular Data for April 11, 2018
Time Temperature Dew Point Pressure Wind Wind Speed Wind Gust Humidity Rainfall Rate (Hourly)
-17.8 °C -17.8 °C 0 hPa Calm     Humidity % 0 mm
00:00 18.7 °C 12.7 °C 1015.1 hPa South 1 km/h 1.9 km/h 68 % 0 mm
00:01 18.7 °C 12.7 °C 1015.1 hPa South 0.3 km/h 1.9 km/h 68 % 0 mm
00:02 18.7 °C 12.7 °C 1015.1 hPa South 0.5 km/h 1.9 km/h 68 % 0 mm
00:03 18.7 °C 12.7 °C 1015.1 hPa North 0.6 km/h 3.2 km/h 68 % 0 mm
00:04 18.7 °C 12.7 °C 1015.1 hPa South 2.1 km/h 3.7 km/h 68 % 0 mm
00:05 18.7 °C 12.9 °C 1015.1 hPa South 3.1 km/h 5.6 km/h 69 % 0 mm
00:06 18.7 °C 12.9 °C 1015.1 hPa South 2.6 km/h 5.6 km/h 69 % 0 mm
00:07 18.7 °C 12.9 °C 1015.1 hPa Calm   3.7 km/h 69 % 0 mm
00:08 18.7 °C 12.9 °C 1015.1 hPa Calm   3.7 km/h 69 % 0 mm
00:09 18.6 °C 12.8 °C 1015.1 hPa Calm   1.9 km/h 69 % 0 mm
00:10 18.6 °C 12.8 °C 1015.1 hPa Calm     69 % 0 mm
00:11 18.6 °C 12.8 °C 1015.1 hPa Calm     69 % 0 mm
00:13 18.6 °C 12.8 °C 1015.1 hPa Calm     69 % 0 mm
00:14 18.6 °C 12.8 °C 1015.1 hPa Calm     69 % 0 mm
00:15 18.6 °C 12.8 °C 1015.1 hPa Calm     69 % 0 mm
00:16 18.6 °C 12.8 °C 1015.1 hPa Calm     69 % 0 mm
00:17 18.5 °C 12.7 °C 1015.1 hPa South 2.9 km/h 5.6 km/h 69 % 0 mm
00:18 18.5 °C 12.9 °C 1015.1 hPa South 3.5 km/h 5.6 km/h 70 % 0 mm
00:19 18.5 °C 12.9 °C 1015.1 hPa South 4.2 km/h 5.6 km/h 70 % 0 mm
00:20 18.5 °C 12.9 °C 1015.1 hPa South 2.9 km/h 5.6 km/h 70 % 0 mm
00:21 18.5 °C 12.9 °C 1015.1 hPa South 3.9 km/h 5.6 km/h 70 % 0 mm
00:23 18.5 °C 12.9 °C 1014.8 hPa South 4.2 km/h 5.6 km/h 70 % 0 mm
00:24 18.5 °C 12.9 °C 1015.1 hPa South 3.7 km/h 5.6 km/h 70 % 0 mm
00:25 18.5 °C 12.9 °C 1015.1 hPa South 3.2 km/h 5.6 km/h 70 % 0 mm
00:26 18.6 °C 13 °C 1015.1 hPa South 4.3 km/h 6.4 km/h 70 % 0 mm
00:27 18.5 °C 12.9 °C 1015.1 hPa South 6.3 km/h 9.7 km/h 70 % 0 mm
00:29 18.5 °C 12.9 °C 1015.1 hPa South 5.5 km/h 9.3 km/h 70 % 0 mm
00:30 18.5 °C 12.9 °C 1015.1 hPa South 4.2 km/h 7.4 km/h 70 % 0 mm
00:31 18.5 °C 12.9 °C 1015.1 hPa North 1.9 km/h 3.7 km/h 70 % 0 mm
00:32 18.5 °C 12.9 °C 1015.1 hPa South 1.4 km/h 3.7 km/h 70 % 0 mm
00:33 18.5 °C 12.9 °C 1014.8 hPa North 1.4 km/h 3.7 km/h 70 % 0 mm
00:34 18.5 °C 12.9 °C 1014.8 hPa South 0.5 km/h 3.2 km/h 70 % 0 mm
00:35 18.5 °C 12.9 °C 1014.8 hPa South 3.2 km/h 3.2 km/h 70 % 0 mm
00:36 18.5 °C 12.9 °C 1014.8 hPa Calm   1.9 km/h 70 % 0 mm
00:37 18.5 °C 12.9 °C 1014.8 hPa South 1.4 km/h 3.7 km/h 70 % 0 mm
00:38 18.5 °C 12.9 °C 1014.8 hPa South 0.5 km/h 3.7 km/h 70 % 0 mm
00:39 18.5 °C 12.9 °C 1014.8 hPa Calm     70 % 0 mm
00:41 18.5 °C 12.9 °C 1014.8 hPa Calm     70 % 0 mm
00:42 18.5 °C 12.9 °C 1014.8 hPa Calm     70 % 0 mm
00:43 18.5 °C 12.9 °C 1014.8 hPa Calm     70 % 0 mm
00:44 18.4 °C 12.9 °C 1014.8 hPa South 1 km/h 3.7 km/h 70 % 0 mm
00:45 18.4 °C 12.9 °C 1014.8 hPa Calm   1.9 km/h 70 % 0 mm
00:46 18.4 °C 12.9 °C 1014.8 hPa Calm   1.9 km/h 70 % 0 mm
00:47 18.4 °C 12.8 °C 1014.8 hPa Calm     70 % 0 mm
00:48 18.4 °C 12.8 °C 1014.8 hPa Calm     70 % 0 mm
00:49 18.4 °C 12.8 °C 1014.8 hPa Calm     70 % 0 mm
00:50 18.3 °C 12.8 °C 1014.8 hPa Calm     70 % 0 mm
00:51 18.3 °C 12.8 °C 1014.8 hPa Calm     70 % 0 mm
00:52 18.3 °C 13 °C 1014.8 hPa South 1.4 km/h 3.2 km/h 71 % 0 mm
00:53 18.3 °C 13 °C 1014.8 hPa South 2.6 km/h 5.6 km/h 71 % 0 mm
00:55 18.3 °C 12.9 °C 1015.1 hPa South 6 km/h 8 km/h 71 % 0 mm
00:57 18.3 °C 12.9 °C 1015.1 hPa South 8 km/h 9.7 km/h 71 % 0 mm
00:58 18.3 °C 12.9 °C 1015.1 hPa South 6.8 km/h 9.3 km/h 71 % 0 mm
00:59 18.3 °C 12.9 °C 1015.1 hPa South 6 km/h 7.4 km/h 71 % 0 mm
01:00 18.3 °C 12.9 °C 1014.8 hPa South 4.2 km/h 7.4 km/h 71 % 0 mm
01:01 18.3 °C 12.9 °C 1014.8 hPa South 4.7 km/h 5.6 km/h 71 % 0 mm
01:02 18.3 °C 12.9 °C 1014.8 hPa South 1.9 km/h 6.4 km/h 71 % 0 mm
01:03 18.3 °C 12.9 °C 1014.4 hPa South 3.9 km/h 5.6 km/h 71 % 0 mm
01:04 18.3 °C 12.9 °C 1014.4 hPa South 4.3 km/h 6.4 km/h 71 % 0 mm
01:05 18.3 °C 12.9 °C 1014.4 hPa South 6.4 km/h 7.4 km/h 71 % 0 mm
01:06 18.3 °C 12.9 °C 1014.4 hPa South 4.7 km/h 7.4 km/h 71 % 0 mm
01:07 18.3 °C 12.9 °C 1014.4 hPa South 5.6 km/h 7.4 km/h 71 % 0 mm
01:08 18.3 °C 12.9 °C 1014.1 hPa South 5.6 km/h 7.4 km/h 71 % 0 mm
01:09 18.3 °C 12.9 °C 1014.1 hPa South 4 km/h 5.6 km/h 71 % 0 mm
01:10 18.3 °C 12.9 °C 1014.1 hPa South 2.6 km/h 5.6 km/h 71 % 0 mm
01:11 18.3 °C 12.9 °C 1014.1 hPa South 3.2 km/h 5.6 km/h 71 % 0 mm
01:12 18.3 °C 12.9 °C 1014.1 hPa South 0.6 km/h 3.7 km/h 71 % 0 mm
01:13 18.3 °C 12.9 °C 1014.1 hPa South 0.5 km/h 3.7 km/h 71 % 0 mm
01:14 18.3 °C 12.9 °C 1014.1 hPa South 0.5 km/h 1.9 km/h 71 % 0 mm
01:15 18.3 °C 12.9 °C 1014.1 hPa South 1.3 km/h 3.7 km/h 71 % 0 mm
01:16 18.3 °C 12.9 °C 1014.1 hPa South 1.8 km/h 3.7 km/h 71 % 0 mm
01:17 18.2 °C 12.9 °C 1014.1 hPa Calm   3.7 km/h 71 % 0 mm
01:18 18.2 °C 12.9 °C 1014.1 hPa South 1.3 km/h 3.7 km/h 71 % 0 mm
01:19 18.2 °C 12.9 °C 1014.1 hPa South 0.6 km/h 3.7 km/h 71 % 0 mm
01:20 18.2 °C 12.9 °C 1014.1 hPa Calm   3.7 km/h 71 % 0 mm
01:21 18.2 °C 12.9 °C 1014.1 hPa Calm     71 % 0 mm
01:22 18.2 °C 12.9 °C 1014.4 hPa North 0.5 km/h 1.6 km/h 71 % 0 mm
01:23 18.2 °C 13.1 °C 1014.4 hPa South 1.9 km/h 3.7 km/h 72 % 0 mm
01:24 18.2 °C 13.1 °C 1014.4 hPa South 3.2 km/h 3.7 km/h 72 % 0 mm
01:25 18.2 °C 13.1 °C 1014.8 hPa South 2.4 km/h 5.6 km/h 72 % 0 mm
01:26 18.1 °C 13 °C 1014.8 hPa South 2.9 km/h 3.7 km/h 72 % 0 mm
01:27 18.1 °C 13 °C 1014.8 hPa South 2.1 km/h 3.7 km/h 72 % 0 mm
01:28 18.1 °C 13 °C 1014.8 hPa North 1.6 km/h 3.7 km/h 72 % 0 mm
01:29 18.1 °C 13 °C 1014.4 hPa South 0.6 km/h 1.9 km/h 72 % 0 mm
01:30 18.1 °C 12.9 °C 1014.4 hPa Calm     72 % 0 mm
01:31 18.1 °C 12.9 °C 1014.1 hPa South 0.6 km/h 3.7 km/h 72 % 0 mm
01:32 18.1 °C 12.9 °C 1014.1 hPa South 1 km/h 3.7 km/h 72 % 0 mm
01:33 18.1 °C 12.9 °C 1014.1 hPa South 0.3 km/h 1.9 km/h 72 % 0 mm
01:34 18 °C 12.9 °C 1014.1 hPa Calm   1.9 km/h 72 % 0 mm
01:35 18 °C 12.9 °C 1014.1 hPa Calm   1.9 km/h 72 % 0 mm
01:36 18 °C 12.9 °C 1014.1 hPa Calm     72 % 0 mm
01:37 18 °C 12.9 °C 1014.1 hPa Calm     72 % 0 mm
01:38 17.9 °C 12.8 °C 1014.1 hPa Calm     72 % 0 mm
01:39 17.9 °C 12.8 °C 1013.8 hPa Calm     72 % 0 mm
01:41 17.9 °C 12.8 °C 1013.8 hPa South 0.2 km/h 3.2 km/h 72 % 0 mm
01:42 17.9 °C 12.8 °C 1013.8 hPa South 2.3 km/h 3.7 km/h 72 % 0 mm
01:43 17.9 °C 12.8 °C 1013.8 hPa South 2.1 km/h 3.7 km/h 72 % 0 mm
01:44 17.9 °C 13 °C 1013.8 hPa North 0.2 km/h 3.7 km/h 73 % 0 mm
01:45 17.9 °C 13 °C 1013.8 hPa Calm   1.9 km/h 73 % 0 mm
01:48 17.8 °C 12.9 °C 1013.8 hPa Calm     73 % 0 mm
01:49 17.8 °C 12.9 °C 1013.8 hPa Calm     73 % 0 mm
01:51 17.7 °C 12.8 °C 1013.8 hPa Calm     73 % 0 mm
01:52 17.7 °C 12.8 °C 1013.8 hPa Calm     73 % 0 mm
01:53 17.7 °C 12.8 °C 1013.8 hPa South 3.1 km/h 4.8 km/h 73 % 0 mm
01:54 17.7 °C 12.8 °C 1013.8 hPa South 4.8 km/h 5.6 km/h 73 % 0 mm
01:55 17.6 °C 12.7 °C 1014.1 hPa South 5.1 km/h 5.6 km/h 73 % 0 mm
01:56 17.6 °C 12.7 °C 1013.8 hPa South 2.6 km/h 5.6 km/h 73 % 0 mm
01:57 17.6 °C 12.7 °C 1013.8 hPa South 1 km/h 5.6 km/h 73 % 0 mm
01:58 17.6 °C 12.7 °C 1013.8 hPa Calm   1.9 km/h 73 % 0 mm
01:59 17.6 °C 12.7 °C 1013.8 hPa Calm     73 % 0 mm
02:00 17.6 °C 12.7 °C 1013.8 hPa Calm     73 % 0 mm
02:01 17.6 °C 12.7 °C 1013.8 hPa Calm     73 % 0 mm
02:02 17.6 °C 12.7 °C 1013.8 hPa Calm   1.6 km/h 73 % 0 mm
02:03 17.6 °C 12.7 °C 1013.8 hPa South 2.7 km/h 5.6 km/h 73 % 0 mm
02:04 17.5 °C 12.6 °C 1013.8 hPa South 4.2 km/h 5.6 km/h 73 % 0 mm
02:05 17.5 °C 12.8 °C 1013.8 hPa South 3.7 km/h 5.6 km/h 74 % 0 mm
02:06 17.5 °C 12.8 °C 1013.8 hPa South 3.2 km/h 5.6 km/h 74 % 0 mm
02:07 17.5 °C 12.8 °C 1013.8 hPa South 2.3 km/h 3.7 km/h 74 % 0 mm
02:08 17.4 °C 12.6 °C 1013.8 hPa South 1.8 km/h 3.7 km/h 73 % 0 mm
02:09 17.4 °C 12.8 °C 1013.8 hPa South 1.1 km/h 3.7 km/h 74 % 0 mm
02:10 17.4 °C 12.8 °C 1013.8 hPa Calm     74 % 0 mm
02:11 17.4 °C 12.8 °C 1013.8 hPa Calm     74 % 0 mm
02:13 17.4 °C 12.7 °C 1013.8 hPa Calm     74 % 0 mm
02:14 17.4 °C 12.7 °C 1013.8 hPa Calm     74 % 0 mm
02:15 17.4 °C 12.7 °C 1013.8 hPa Calm     74 % 0 mm
02:16 17.4 °C 12.7 °C 1013.8 hPa Calm     74 % 0 mm
02:17 17.4 °C 12.7 °C 1013.8 hPa South 1.3 km/h 3.7 km/h 74 % 0 mm
02:18 17.4 °C 12.7 °C 1013.8 hPa South 2.7 km/h 3.7 km/h 74 % 0 mm
02:19 17.3 °C 12.7 °C 1013.8 hPa South 2.1 km/h 3.7 km/h 74 % 0 mm
02:20 17.3 °C 12.7 °C 1013.8 hPa South 1.1 km/h 3.7 km/h 74 % 0 mm
02:21 17.3 °C 12.6 °C 1013.8 hPa Calm     74 % 0 mm
02:23 17.2 °C 12.6 °C 1013.8 hPa South 1 km/h 1.9 km/h 74 % 0 mm
02:24 17.2 °C 12.6 °C 1013.8 hPa North 1.3 km/h 3.2 km/h 74 % 0 mm
02:26 17.2 °C 12.5 °C 1013.8 hPa South 5.1 km/h 5.6 km/h 74 % 0 mm
02:27 17.2 °C 12.5 °C 1013.8 hPa North 5.6 km/h 6.4 km/h 74 % 0 mm
02:28 17.2 °C 12.7 °C 1013.8 hPa South 5.1 km/h 6.4 km/h 75 % 0 mm
02:29 17.1 °C 12.7 °C 1013.8 hPa North 5.5 km/h 5.6 km/h 75 % 0 mm
02:30 17.2 °C 12.7 °C 1013.8 hPa South 5.5 km/h 5.6 km/h 75 % 0 mm
02:32 17.2 °C 12.7 °C 1014.1 hPa North 5.6 km/h 7.4 km/h 75 % 0 mm
02:33 17.2 °C 12.7 °C 1014.1 hPa South 6.1 km/h 7.4 km/h 75 % 0 mm
02:34 17.2 °C 12.7 °C 1014.1 hPa North 6.8 km/h 8 km/h 75 % 0 mm
02:35 17.3 °C 12.8 °C 1014.1 hPa North 7.2 km/h 9.3 km/h 75 % 0 mm
02:37 17.4 °C 12.9 °C 1014.1 hPa South 5.6 km/h 9.3 km/h 75 % 0 mm
02:38 17.4 °C 12.9 °C 1014.1 hPa South 5.1 km/h 7.4 km/h 75 % 0 mm
02:39 17.4 °C 12.8 °C 1014.1 hPa South 4.5 km/h 6.4 km/h 74 % 0 mm
02:40 17.5 °C 12.8 °C 1014.1 hPa South 5 km/h 6.4 km/h 74 % 0 mm
02:42 17.6 °C 12.9 °C 1014.1 hPa South 4 km/h 7.4 km/h 74 % 0 mm
02:43 17.6 °C 12.9 °C 1014.1 hPa North 3.7 km/h 5.6 km/h 74 % 0 mm
02:44 17.6 °C 12.9 °C 1014.1 hPa South 3.9 km/h 5.6 km/h 74 % 0 mm
02:45 17.7 °C 13 °C 1014.1 hPa South 3.5 km/h 5.6 km/h 74 % 0 mm
02:46 17.7 °C 13 °C 1014.1 hPa South 4 km/h 5.6 km/h 74 % 0 mm
02:47 17.7 °C 12.8 °C 1014.1 hPa South 4.2 km/h 5.6 km/h 73 % 0 mm
02:48 17.7 °C 12.8 °C 1013.8 hPa South 3.5 km/h 5.6 km/h 73 % 0 mm
02:49 17.7 °C 12.8 °C 1013.8 hPa South 2.9 km/h 5.6 km/h 73 % 0 mm
02:51 17.7 °C 12.8 °C 1013.8 hPa Calm     73 % 0 mm
02:52 17.7 °C 12.8 °C 1013.8 hPa Calm     73 % 0 mm
02:53 17.7 °C 12.8 °C 1013.8 hPa South 0.8 km/h 1.6 km/h 73 % 0 mm
02:54 17.8 °C 12.9 °C 1013.8 hPa North 0.3 km/h 3.7 km/h 73 % 0 mm
02:55 17.8 °C 12.9 °C 1013.8 hPa South 1.9 km/h 3.7 km/h 73 % 0 mm
02:56 17.8 °C 12.9 °C 1013.8 hPa South 2.1 km/h 3.7 km/h 73 % 0 mm
02:57 17.8 °C 12.9 °C 1013.8 hPa South 1.8 km/h 3.7 km/h 73 % 0 mm
02:58 17.8 °C 12.9 °C 1013.8 hPa South 0.6 km/h 3.7 km/h 73 % 0 mm
02:59 17.8 °C 12.9 °C 1013.8 hPa South 0.8 km/h 1.9 km/h 73 % 0 mm
03:00 17.8 °C 12.9 °C 1013.4 hPa Calm   1.9 km/h 73 % 0 mm
03:01 17.8 °C 12.9 °C 1013.4 hPa Calm     73 % 0 mm
03:02 17.8 °C 12.9 °C 1013.4 hPa Calm     73 % 0 mm
03:03 17.8 °C 12.9 °C 1013.4 hPa Calm     73 % 0 mm
03:04 17.8 °C 12.9 °C 1013.4 hPa Calm     73 % 0 mm
03:05 17.8 °C 12.9 °C 1013.4 hPa Calm     73 % 0 mm
03:06 17.8 °C 12.9 °C 1013.4 hPa Calm     73 % 0 mm
03:07 17.7 °C 12.8 °C 1013.4 hPa Calm     73 % 0 mm
03:08 17.7 °C 12.8 °C 1013.4 hPa Calm     73 % 0 mm
03:09 17.7 °C 12.8 °C 1013.4 hPa Calm     73 % 0 mm
03:10 17.7 °C 12.8 °C 1013.4 hPa Calm     73 % 0 mm
03:13 17.7 °C 12.8 °C 1013.1 hPa Calm     73 % 0 mm
03:14 17.7 °C 12.8 °C 1013.1 hPa Calm     73 % 0 mm
03:16 17.7 °C 12.8 °C 1013.1 hPa South 2.6 km/h 3.7 km/h 73 % 0 mm
03:18 17.7 °C 12.8 °C 1013.1 hPa South 1.3 km/h 3.7 km/h 73 % 0 mm
03:19 17.7 °C 12.8 °C 1013.1 hPa Calm   1.9 km/h 73 % 0 mm
03:21 17.7 °C 12.8 °C 1013.1 hPa Calm     73 % 0 mm
03:22 17.7 °C 12.8 °C 1013.1 hPa Calm     73 % 0 mm
03:23 17.7 °C 12.8 °C 1013.1 hPa Calm     73 % 0 mm
03:25 17.7 °C 12.8 °C 1013.1 hPa Calm     73 % 0 mm
03:26 17.6 °C 12.7 °C 1013.1 hPa South 1.8 km/h 1.9 km/h 73 % 0 mm
03:27 17.6 °C 12.7 °C 1013.1 hPa South 1.8 km/h 3.7 km/h 73 % 0 mm
03:28 17.6 °C 12.7 °C 1013.1 hPa South 0.8 km/h 3.7 km/h 73 % 0 mm
03:29 17.6 °C 12.9 °C 1013.1 hPa Calm     74 % 0 mm
03:30 17.6 °C 12.9 °C 1013.1 hPa Calm     74 % 0 mm
03:31 17.6 °C 12.9 °C 1013.1 hPa Calm     74 % 0 mm
03:32 17.5 °C 12.8 °C 1013.1 hPa Calm     74 % 0 mm
03:33 17.5 °C 12.8 °C 1013.1 hPa Calm     74 % 0 mm
03:34 17.5 °C 12.8 °C 1013.1 hPa Calm     74 % 0 mm
03:35 17.5 °C 12.8 °C 1013.1 hPa Calm     74 % 0 mm
03:36 17.5 °C 13 °C 1013.1 hPa Calm     75 % 0 mm
03:38 17.4 °C 12.9 °C 1013.1 hPa Calm     75 % 0 mm
03:42 17.4 °C 12.9 °C 1012.8 hPa Calm     75 % 0 mm
03:43 17.4 °C 12.9 °C 1012.8 hPa Calm     75 % 0 mm
03:44 17.4 °C 12.9 °C 1012.8 hPa Calm     75 % 0 mm
03:45 17.4 °C 12.9 °C 1012.8 hPa Calm     75 % 0 mm
03:46 17.4 °C 12.9 °C 1012.8 hPa Calm     75 % 0 mm
03:48 17.4 °C 12.9 °C 1012.8 hPa South 3.5 km/h 3.7 km/h 75 % 0 mm
03:50 17.4 °C 12.9 °C 1012.8 hPa South 1.3 km/h 5.6 km/h 75 % 0 mm
03:51 17.4 °C 12.9 °C 1012.8 hPa South 1.8 km/h 3.7 km/h 75 % 0 mm
03:52 17.4 °C 12.9 °C 1012.8 hPa South 2.6 km/h 3.7 km/h 75 % 0 mm
03:53 17.4 °C 12.9 °C 1012.8 hPa South 0.3 km/h 3.7 km/h 75 % 0 mm
03:54 17.4 °C 12.9 °C 1012.8 hPa Calm     75 % 0 mm
03:55 17.4 °C 12.9 °C 1012.8 hPa Calm     75 % 0 mm
03:56 17.4 °C 12.9 °C 1012.8 hPa Calm     75 % 0 mm
03:57 17.5 °C 13 °C 1012.8 hPa Calm     75 % 0 mm
03:58 17.5 °C 13 °C 1012.8 hPa Calm     75 % 0 mm
03:59 17.5 °C 13 °C 1012.8 hPa South 2.4 km/h 6.4 km/h 75 % 0 mm
04:00 17.6 °C 13.1 °C 1012.8 hPa South 3.5 km/h 5.6 km/h 75 % 0 mm
04:02 17.6 °C 12.9 °C 1012.8 hPa South 3.2 km/h 5.6 km/h 74 % 0 mm
04:04 17.7 °C 13 °C 1012.8 hPa South 4.5 km/h 6.4 km/h 74 % 0 mm
04:05 17.8 °C 13.1 °C 1012.4 hPa South 5.1 km/h 5.6 km/h 74 % 0 mm
04:06 17.8 °C 13.1 °C 1012.4 hPa South 5.5 km/h 6.4 km/h 74 % 0 mm
04:08 17.9 °C 13 °C 1012.4 hPa South 4 km/h 6.4 km/h 73 % 0 mm
04:09 17.9 °C 13.1 °C 1012.4 hPa South 5.5 km/h 6.4 km/h 73 % 0 mm
04:10 18 °C 13.1 °C 1012.4 hPa SSW 6.1 km/h 7.4 km/h 73 % 0 mm
04:11 18 °C 13.1 °C 1012.4 hPa North 3.9 km/h 5.6 km/h 73 % 0 mm
04:12 18.1 °C 12.9 °C 1012.4 hPa SSW 0.3 km/h 5.6 km/h 72 % 0 mm
04:13 18.1 °C 12.9 °C 1012.4 hPa North 1.6 km/h 3.2 km/h 72 % 0 mm
04:14 18.1 °C 13 °C 1012.4 hPa SSW 3.4 km/h 5.6 km/h 72 % 0 mm
04:16 18.1 °C 13 °C 1012.4 hPa SSW 3.5 km/h 5.6 km/h 72 % 0 mm
04:17 18.2 °C 13.1 °C 1012.4 hPa SSW 1.6 km/h 5.6 km/h 72 % 0 mm
04:18 18.2 °C 13.1 °C 1012.4 hPa Calm   1.9 km/h 72 % 0 mm
04:20 18.2 °C 13.1 °C 1012.4 hPa Calm     72 % 0 mm
04:21 18.2 °C 13.1 °C 1012.4 hPa Calm     72 % 0 mm
04:22 18.2 °C 13.1 °C 1012.4 hPa Calm     72 % 0 mm
04:25 18.2 °C 12.8 °C 1012.4 hPa Calm     71 % 0 mm
04:27 18.2 °C 12.8 °C 1012.4 hPa Calm     71 % 0 mm
04:29 18.2 °C 12.8 °C 1012.4 hPa Calm     71 % 0 mm
04:30 18.2 °C 12.8 °C 1012.4 hPa Calm     71 % 0 mm
04:32 18.2 °C 12.8 °C 1012.4 hPa Calm     71 % 0 mm
04:34 18.1 °C 12.8 °C 1012.4 hPa Calm     71 % 0 mm
04:35 18.1 °C 12.8 °C 1012.4 hPa Calm     71 % 0 mm
04:36 18.1 °C 12.8 °C 1012.4 hPa Calm     71 % 0 mm
04:37 18.1 °C 12.7 °C 1012.4 hPa Calm     71 % 0 mm
04:38 18.1 °C 12.7 °C 1012.4 hPa Calm     71 % 0 mm
04:39 18 °C 12.9 °C 1012.4 hPa Calm     72 % 0 mm
04:40 18 °C 12.9 °C 1012.4 hPa Calm     72 % 0 mm
04:41 18 °C 12.9 °C 1012.4 hPa Calm     72 % 0 mm
04:42 17.9 °C 12.8 °C 1012.4 hPa Calm     72 % 0 mm
04:43 17.9 °C 12.8 °C 1012.4 hPa Calm     72 % 0 mm
04:44 17.9 °C 12.8 °C 1012.4 hPa Calm     72 % 0 mm
04:45 17.9 °C 12.8 °C 1012.4 hPa Calm     72 % 0 mm
04:46 17.9 °C 12.8 °C 1012.4 hPa Calm     72 % 0 mm
04:47 17.9 °C 12.8 °C 1012.4 hPa Calm     72 % 0 mm
04:49 17.8 °C 12.7 °C 1012.4 hPa Calm     72 % 0 mm
04:54 17.8 °C 12.7 °C 1012.4 hPa SSW 0.3 km/h 3.2 km/h 72 % 0 mm
04:55 17.8 °C 12.7 °C 1012.4 hPa SSW 0.8 km/h 3.7 km/h 72 % 0 mm
04:56 17.8 °C 12.7 °C 1012.4 hPa Calm     72 % 0 mm
04:57 17.8 °C 12.7 °C 1012.4 hPa Calm     72 % 0 mm
04:58 17.9 °C 12.8 °C 1012.4 hPa SSW 3.9 km/h 4.8 km/h 72 % 0 mm
04:59 17.9 °C 12.6 °C 1012.4 hPa SSW 4.2 km/h 5.6 km/h 71 % 0 mm
05:00 17.9 °C 12.6 °C 1012.4 hPa SSW 4 km/h 5.6 km/h 71 % 0 mm
05:02 18 °C 12.7 °C 1012.4 hPa SSW 2.9 km/h 3.7 km/h 71 % 0 mm
05:04 18 °C 12.4 °C 1012.4 hPa SSW 1.8 km/h 5.6 km/h 70 % 0 mm
05:05 18.1 °C 12.5 °C 1012.4 hPa SSW 5.1 km/h 5.6 km/h 70 % 0 mm
05:06 18.1 °C 12.5 °C 1012.4 hPa SSW 4.2 km/h 6.4 km/h 70 % 0 mm
05:07 18.1 °C 12.3 °C 1012.4 hPa SSW 2.6 km/h 5.6 km/h 69 % 0 mm
05:08 18.1 °C 12.3 °C 1012.4 hPa SSW 1.6 km/h 6.4 km/h 69 % 0 mm
05:09 18.2 °C 12.2 °C 1012.4 hPa SSW 4.8 km/h 5.6 km/h 68 % 0 mm
05:12 18.4 °C 12.2 °C 1012.4 hPa South 5 km/h 7.4 km/h 67 % 0 mm
05:13 18.5 °C 12 °C 1012.4 hPa SSW 6.1 km/h 6.1 km/h 66 % 0 mm
05:15 18.7 °C 11.9 °C 1012.4 hPa SSW 3.2 km/h 5.6 km/h 65 % 0 mm
05:16 18.8 °C 11.8 °C 1012.4 hPa SSW 5.8 km/h 6.4 km/h 64 % 0 mm
05:20 19.2 °C 11.8 °C 1012.4 hPa SSW 4.5 km/h 5.6 km/h 62 % 0 mm
05:23 19.4 °C 11.7 °C 1012.4 hPa SSW 0.8 km/h 5.6 km/h 61 % 0 mm
05:24 19.5 °C 11.5 °C 1012.4 hPa SSW 2.4 km/h 3.7 km/h 60 % 0 mm
05:26 19.6 °C 11.6 °C 1012.4 hPa SSW 3.4 km/h 5.6 km/h 60 % 0 mm
05:28 19.7 °C 11.4 °C 1012.4 hPa SSW 3.9 km/h 5.6 km/h 59 % 0 mm
05:29 19.7 °C 11.2 °C 1012.4 hPa SSW 4.2 km/h 5.6 km/h 58 % 0 mm
05:31 19.9 °C 11.4 °C 1012.4 hPa SSW 0.5 km/h 3.7 km/h 58 % 0 mm
05:34 19.9 °C 11.4 °C 1012.8 hPa Calm   1.6 km/h 58 % 0 mm
05:35 19.9 °C 11.4 °C 1012.8 hPa SSW 0.3 km/h 1.9 km/h 58 % 0 mm
05:36 19.9 °C 11.4 °C 1012.8 hPa SSW 2.7 km/h 5.6 km/h 58 % 0 mm
05:38 19.9 °C 11.4 °C 1012.8 hPa SSW 3.7 km/h 5.6 km/h 58 % 0 mm
05:39 19.9 °C 11.4 °C 1012.8 hPa SSW 3.5 km/h 5.6 km/h 58 % 0 mm
05:40 19.8 °C 11.8 °C 1012.8 hPa South 6.8 km/h 11.1 km/h 60 % 0 mm
05:41 19.8 °C 11.8 °C 1012.8 hPa South 9 km/h 11.1 km/h 60 % 0 mm
05:42 19.7 °C 11.7 °C 1012.8 hPa South 10 km/h 13 km/h 60 % 0 mm
05:43 19.5 °C 11.8 °C 1013.1 hPa South 5.6 km/h 14.8 km/h 61 % 0 mm
05:44 19.4 °C 11.7 °C 1013.1 hPa South 10.8 km/h 11.1 km/h 61 % 0 mm
05:45 19.3 °C 11.9 °C 1013.1 hPa South 7.4 km/h 14.8 km/h 62 % 0 mm
05:46 19.2 °C 11.7 °C 1013.1 hPa South 7.4 km/h 9.7 km/h 62 % 0 mm
05:47 19.1 °C 11.7 °C 1013.1 hPa South 9.7 km/h 11.1 km/h 62 % 0 mm
05:48 19.1 °C 11.8 °C 1013.1 hPa South 9 km/h 13 km/h 63 % 0 mm
05:49 19 °C 11.8 °C 1013.1 hPa South 12.1 km/h 14.8 km/h 63 % 0 mm
05:50 18.9 °C 11.9 °C 1013.1 hPa South 8.5 km/h 13 km/h 64 % 0 mm
05:51 18.8 °C 11.8 °C 1013.1 hPa South 5.5 km/h 7.4 km/h 64 % 0 mm
05:52 18.8 °C 12.1 °C 1013.1 hPa South 5 km/h 5.6 km/h 65 % 0 mm
05:53 18.7 °C 11.9 °C 1013.1 hPa South 0.3 km/h 5.6 km/h 65 % 0 mm
05:54 18.6 °C 11.9 °C 1013.1 hPa South 1.4 km/h 5.6 km/h 65 % 0 mm
05:55 18.6 °C 12.1 °C 1013.1 hPa South 4.5 km/h 11.3 km/h 66 % 0 mm
05:56 18.6 °C 12.1 °C 1013.4 hPa South 8 km/h 11.1 km/h 66 % 0 mm
05:57 18.4 °C 12 °C 1013.4 hPa SSW 12.2 km/h 14.8 km/h 66 % 0 mm
05:58 18.3 °C 12.1 °C 1013.4 hPa South 14.2 km/h 18.5 km/h 67 % 0 mm
05:59 18.2 °C 12.2 °C 1013.4 hPa South 10.3 km/h 16.7 km/h 68 % 0 mm
06:00 18.1 °C 12.1 °C 1013.4 hPa South 8.5 km/h 11.1 km/h 68 % 0 mm
06:01 18 °C 12.2 °C 1013.4 hPa South 8.5 km/h 11.1 km/h 69 % 0 mm
06:02 17.9 °C 12.1 °C 1013.4 hPa South 5 km/h 11.1 km/h 69 % 0 mm
06:04 17.7 °C 12.2 °C 1013.4 hPa North 6.8 km/h 13 km/h 70 % 0 mm
06:07 17.5 °C 12.2 °C 1013.4 hPa South 6.3 km/h 9.7 km/h 71 % 0 mm
06:09 17.3 °C 12.2 °C 1013.4 hPa South 6.8 km/h 13 km/h 72 % 0 mm
06:10 17.3 °C 12.4 °C 1013.8 hPa South 12.1 km/h 19.3 km/h 73 % 0 mm
06:11 17.1 °C 12.4 °C 1013.8 hPa SSW 18 km/h 27.8 km/h 74 % 0 mm
06:12 17 °C 12.3 °C 1013.8 hPa North 16.9 km/h 24.1 km/h 74 % 0 mm
06:16 16.6 °C 12.6 °C 1013.4 hPa SSW 7.6 km/h 14.5 km/h 77 % 0 mm
06:17 16.5 °C 12.7 °C 1013.8 hPa South 14.2 km/h 17.7 km/h 78 % 0 mm
06:18 16.4 °C 12.7 °C 1013.8 hPa South 10.5 km/h 18.5 km/h 79 % 0 mm
06:21 16.2 °C 12.7 °C 1013.8 hPa South 13.5 km/h 18.5 km/h 80 % 0 mm
06:22 16.1 °C 12.8 °C 1013.8 hPa South 10.5 km/h 18.5 km/h 81 % 0 mm
06:25 15.9 °C 12.8 °C 1013.8 hPa North 6.1 km/h 7.4 km/h 82 % 0 mm
06:27 15.8 °C 12.8 °C 1013.8 hPa North 1.9 km/h 9.7 km/h 82 % 0 mm
06:28 15.8 °C 12.9 °C 1013.8 hPa South 6.3 km/h 9.3 km/h 83 % 0 mm
06:29 15.8 °C 12.9 °C 1013.8 hPa South 6.8 km/h 8 km/h 83 % 0 mm
06:30 15.7 °C 12.8 °C 1013.8 hPa South 5.1 km/h 9.3 km/h 83 % 0 mm
06:31 15.7 °C 12.8 °C 1013.8 hPa South 4.2 km/h 9.3 km/h 83 % 0 mm
06:32 15.7 °C 12.9 °C 1013.8 hPa South 2.4 km/h 8 km/h 84 % 0 mm
06:35 15.6 °C 12.9 °C 1013.8 hPa South 6.8 km/h 9.7 km/h 84 % 0 mm
06:39 15.4 °C 12.9 °C 1014.1 hPa South 6.6 km/h 9.3 km/h 85 % 0 mm
06:40 15.4 °C 12.9 °C 1013.8 hPa North 5 km/h 7.4 km/h 85 % 0 mm
06:41 15.4 °C 13.1 °C 1013.8 hPa South 4.3 km/h 7.4 km/h 86 % 0 mm
06:43 15.4 °C 13.1 °C 1013.8 hPa North 5 km/h 7.4 km/h 86 % 0 mm
06:44 15.3 °C 13 °C 1013.8 hPa South 5.6 km/h 7.4 km/h 86 % 0 mm
06:45 15.3 °C 13.2 °C 1013.8 hPa South 5 km/h 8 km/h 87 % 0 mm
06:49 15.3 °C 13.1 °C 1014.1 hPa South 4.3 km/h 11.1 km/h 87 % 0 mm
06:50 15.3 °C 13.1 °C 1014.1 hPa North 7.4 km/h 11.1 km/h 87 % 0 mm
06:51 15.3 °C 13.3 °C 1014.1 hPa North 6.1 km/h 11.1 km/h 88 % 0 mm
06:54 15.2 °C 13.2 °C 1014.1 hPa South 8.2 km/h 11.1 km/h 88 % 0 mm
07:00 15.1 °C 13.3 °C 1014.1 hPa South 7.6 km/h 9.7 km/h 89 % 0 mm
07:01 15.1 °C 13.3 °C 1014.1 hPa North 7.1 km/h 9.3 km/h 89 % 0 mm
07:04 15.1 °C 13.3 °C 1014.1 hPa North 5.6 km/h 13 km/h 89 % 0 mm
07:05 15.1 °C 13.5 °C 1014.1 hPa South 6.1 km/h 7.4 km/h 90 % 0 mm
07:07 15.1 °C 13.4 °C 1014.1 hPa South 4.3 km/h 7.4 km/h 90 % 0 mm
07:08 15.1 °C 13.4 °C 1014.1 hPa North 8.4 km/h 9.3 km/h 90 % 0 mm
07:09 15.1 °C 13.4 °C 1014.1 hPa South 6.9 km/h 11.1 km/h 90 % 0 mm
07:10 15.1 °C 13.4 °C 1014.1 hPa North 6.8 km/h 9.3 km/h 90 % 0 mm
07:14 15.1 °C 13.4 °C 1014.1 hPa South 3.9 km/h 9.7 km/h 90 % 0 mm
07:17 15 °C 13.4 °C 1014.1 hPa South 5.5 km/h 7.4 km/h 90 % 0 mm
07:18 15.1 °C 13.4 °C 1014.1 hPa North 5 km/h 7.4 km/h 90 % 0 mm
07:20 15 °C 13.6 °C 1014.1 hPa North 6.1 km/h 7.4 km/h 91 % 0 mm
07:21 15 °C 13.6 °C 1014.1 hPa South 5.6 km/h 7.4 km/h 91 % 0 mm
07:25 15.1 °C 13.6 °C 1014.1 hPa North 5.6 km/h 5.6 km/h 91 % 0 mm
07:30 15.1 °C 13.6 °C 1014.1 hPa South 6.4 km/h 7.4 km/h 91 % 0 mm
07:32 15.1 °C 13.6 °C 1014.1 hPa South 8.5 km/h 9.3 km/h 91 % 0 mm
07:33 15.1 °C 13.6 °C 1014.4 hPa South 7.6 km/h 8 km/h 91 % 0 mm
07:35 15.1 °C 13.6 °C 1014.4 hPa North 7.2 km/h 9.3 km/h 91 % 0 mm
07:36 15.1 °C 13.6 °C 1014.4 hPa South 5.3 km/h 11.1 km/h 91 % 0 mm
07:38 15.1 °C 13.6 °C 1014.4 hPa South 8.4 km/h 8.4 km/h 91 % 0 mm
07:40 15.1 °C 13.6 °C 1014.4 hPa North 5 km/h 9.7 km/h 91 % 0 mm
07:41 15.1 °C 13.6 °C 1014.1 hPa South 5.6 km/h 13 km/h 91 % 0 mm
07:42 15 °C 13.6 °C 1014.4 hPa South 5.1 km/h 13 km/h 91 % 0 mm
07:47 15.1 °C 13.6 °C 1014.4 hPa North 3.5 km/h 5.6 km/h 91 % 0 mm
07:48 15.1 °C 13.6 °C 1014.4 hPa North 5.1 km/h 8 km/h 91 % 0 mm
07:51 15.1 °C 13.6 °C 1014.4 hPa South 3.7 km/h 9.7 km/h 91 % 0 mm
07:52 15.1 °C 13.6 °C 1014.4 hPa South 5.8 km/h 9.3 km/h 91 % 0 mm
07:56 15.1 °C 13.8 °C 1014.4 hPa North 5.1 km/h 11.1 km/h 92 % 0 mm
07:58 15.1 °C 13.8 °C 1014.4 hPa South 7.7 km/h 11.1 km/h 92 % 0 mm
08:01 15.1 °C 13.8 °C 1014.4 hPa South 9.8 km/h 13 km/h 92 % 0 mm
08:02 15.1 °C 13.8 °C 1014.4 hPa South 8.4 km/h 13 km/h 92 % 0 mm
08:03 15 °C 13.7 °C 1014.4 hPa South 8.9 km/h 13 km/h 92 % 0 mm
08:05 15 °C 13.7 °C 1014.4 hPa South 8.4 km/h 11.1 km/h 92 % 0 mm
08:10 15 °C 13.7 °C 1014.4 hPa South 8.2 km/h 11.1 km/h 92 % 0 mm
08:11 15 °C 13.7 °C 1014.4 hPa South 8.2 km/h 11.3 km/h 92 % 0 mm
08:12 15.1 °C 13.8 °C 1014.4 hPa South 9.8 km/h 13 km/h 92 % 0 mm
08:16 15.1 °C 13.8 °C 1014.4 hPa North 8.9 km/h 13 km/h 92 % 0 mm
08:21 15.2 °C 13.9 °C 1014.4 hPa South 10.8 km/h 10.8 km/h 92 % 0 mm
08:22 15.2 °C 13.9 °C 1014.4 hPa North 6.8 km/h 9.3 km/h 92 % 0 mm
08:23 15.3 °C 14 °C 1014.4 hPa North 6.6 km/h 9.3 km/h 92 % 0 mm
08:24 15.3 °C 14.1 °C 1014.4 hPa North 8.2 km/h 11.3 km/h 92 % 0 mm
08:27 15.3 °C 14 °C 1014.4 hPa North 8.5 km/h 11.1 km/h 92 % 0 mm
08:28 15.3 °C 14 °C 1014.4 hPa South 5 km/h 7.4 km/h 92 % 0 mm
08:31 15.3 °C 14 °C 1014.4 hPa South 6.4 km/h 11.1 km/h 92 % 0 mm
08:32 15.3 °C 14 °C 1014.4 hPa North 5.8 km/h 11.1 km/h 92 % 0 mm
08:34 15.3 °C 14 °C 1014.4 hPa South 8.7 km/h 13 km/h 92 % 0 mm
08:35 15.3 °C 14 °C 1014.4 hPa North 10.1 km/h 13 km/h 92 % 0 mm
08:38 15.3 °C 14 °C 1014.4 hPa North 8 km/h 13 km/h 92 % 0 mm
08:43 15.3 °C 14 °C 1014.4 hPa North 11.1 km/h 11.1 km/h 92 % 0 mm
08:46 15.3 °C 14 °C 1014.4 hPa South 6 km/h 11.1 km/h 92 % 0 mm
08:47 15.3 °C 14 °C 1014.4 hPa North 5.8 km/h 11.1 km/h 92 % 0 mm
08:50 15.3 °C 14 °C 1014.4 hPa South 6.1 km/h 7.4 km/h 92 % 0 mm
08:54 15.3 °C 13.9 °C 1014.4 hPa South 4.8 km/h 7.4 km/h 91 % 0 mm
08:55 15.3 °C 13.9 °C 1014.4 hPa South 5.5 km/h 8 km/h 91 % 0 mm
08:57 15.3 °C 13.9 °C 1014.4 hPa South 4.5 km/h 9.3 km/h 91 % 0 mm
08:59 15.3 °C 13.9 °C 1014.4 hPa South 5.8 km/h 7.4 km/h 91 % 0 mm
09:01 15.3 °C 13.9 °C 1014.4 hPa North 6.4 km/h 9.3 km/h 91 % 0 mm
09:02 15.4 °C 13.9 °C 1014.4 hPa South 6.3 km/h 9.7 km/h 91 % 0 mm
09:04 15.3 °C 13.9 °C 1014.4 hPa South 7.7 km/h 11.1 km/h 91 % 0 mm
09:09 15.4 °C 14 °C 1014.4 hPa North 7.1 km/h 9.3 km/h 91 % 0 mm
09:10 15.4 °C 14 °C 1014.4 hPa South 5.5 km/h 9.3 km/h 91 % 0 mm
09:12 15.5 °C 14.1 °C 1014.4 hPa North 8.2 km/h 11.3 km/h 91 % 0 mm
09:13 15.6 °C 14.1 °C 1014.4 hPa South 10 km/h 11.3 km/h 91 % 0 mm
09:16 15.6 °C 14.2 °C 1014.4 hPa North 6.9 km/h 7.4 km/h 91 % 0 mm
09:17 15.6 °C 14.2 °C 1014.4 hPa North 7.7 km/h 9.3 km/h 91 % 0 mm
09:23 15.6 °C 14 °C 1014.4 hPa North 5.8 km/h 7.4 km/h 90 % 0 mm
09:24 15.7 °C 14.1 °C 1014.4 hPa South 3.4 km/h 6.4 km/h 90 % 0 mm
09:25 15.6 °C 14 °C 1014.4 hPa North 5.5 km/h 7.4 km/h 90 % 0 mm
09:28 15.7 °C 14.1 °C 1014.4 hPa North 3.1 km/h 5.6 km/h 90 % 0 mm
09:29 15.7 °C 14.1 °C 1014.1 hPa South 2.6 km/h 3.7 km/h 90 % 0 mm
09:34 15.8 °C 14.2 °C 1014.1 hPa South 5 km/h 7.4 km/h 90 % 0 mm
09:36 15.8 °C 14.2 °C 1014.1 hPa South 3.7 km/h 5.6 km/h 90 % 0 mm
09:38 15.9 °C 14.1 °C 1014.1 hPa South 3.1 km/h 7.4 km/h 89 % 0 mm
09:42 15.9 °C 14.1 °C 1014.1 hPa South 2.7 km/h 5.6 km/h 89 % 0 mm
09:44 15.9 °C 14.1 °C 1014.1 hPa South 4 km/h 5.6 km/h 89 % 0 mm
09:47 15.8 °C 14 °C 1014.1 hPa South 7.9 km/h 9.7 km/h 89 % 0 mm
09:52 15.9 °C 14.1 °C 1014.1 hPa South 4.5 km/h 7.4 km/h 89 % 0 mm
09:54 15.9 °C 14.1 °C 1014.1 hPa South 2.1 km/h 5.6 km/h 89 % 0 mm
09:56 15.9 °C 14.1 °C 1014.1 hPa South 5 km/h 8 km/h 89 % 0 mm
09:57 15.9 °C 14.1 °C 1014.1 hPa South 6.1 km/h 7.4 km/h 89 % 0 mm
10:00 16 °C 14.2 °C 1014.1 hPa South 4.3 km/h 5.6 km/h 89 % 0 mm
10:04 16.1 °C 14.1 °C 1014.1 hPa South 1.3 km/h 3.7 km/h 88 % 0 mm
10:06 16.2 °C 14.3 °C 1014.1 hPa South 1.8 km/h 3.7 km/h 89 % 0 mm
10:11 16.5 °C 14.7 °C 1013.8 hPa South 2.7 km/h 4.8 km/h 89 % 0 mm
10:13 16.7 °C 14.5 °C 1013.8 hPa South 3.1 km/h 5.6 km/h 87 % 0 mm
10:14 16.7 °C 14.6 °C 1013.8 hPa South 2.9 km/h 5.6 km/h 87 % 0 mm
10:17 16.9 °C 14.9 °C 1014.1 hPa South 0.2 km/h 1.6 km/h 88 % 0 mm
10:19 17.2 °C 14.8 °C 1014.1 hPa South 0.3 km/h 3.7 km/h 86 % 0 mm
10:27 17.8 °C 14.9 °C 1013.8 hPa South 4.3 km/h 5.6 km/h 83 % 0 mm
10:28 17.9 °C 15 °C 1013.8 hPa South 2.1 km/h 5.6 km/h 83 % 0 mm
10:29 18 °C 14.9 °C 1013.8 hPa South 1.1 km/h 3.7 km/h 82 % 0 mm
10:30 18.1 °C 15 °C 1013.4 hPa South 4 km/h 6.4 km/h 82 % 0 mm
10:31 18.2 °C 14.8 °C 1013.4 hPa South 5.6 km/h 7.4 km/h 81 % 0 mm
10:32 18.2 °C 14.7 °C 1013.4 hPa South 4.7 km/h 5.6 km/h 80 % 0 mm
10:34 18.2 °C 14.7 °C 1013.4 hPa South 3.9 km/h 8 km/h 80 % 0 mm
10:35 18.2 °C 14.7 °C 1013.4 hPa South 6.8 km/h 7.4 km/h 80 % 0 mm
10:36 18.2 °C 14.5 °C 1013.4 hPa South 8.4 km/h 9.3 km/h 79 % 0 mm
10:37 18.2 °C 14.5 °C 1013.4 hPa South 6.1 km/h 9.3 km/h 79 % 0 mm
10:38 18.2 °C 14.5 °C 1013.4 hPa South 5.8 km/h 7.4 km/h 79 % 0 mm
10:40 18.3 °C 14.6 °C 1013.4 hPa South 5.5 km/h 5.6 km/h 79 % 0 mm
10:41 18.3 °C 14.6 °C 1013.4 hPa South 4.7 km/h 6.4 km/h 79 % 0 mm
10:43 18.4 °C 14.7 °C 1013.4 hPa South 2.9 km/h 7.4 km/h 79 % 0 mm
10:44 18.4 °C 14.7 °C 1013.4 hPa South 4.5 km/h 8 km/h 79 % 0 mm
10:49 18.8 °C 14.8 °C 1013.8 hPa South 6.1 km/h 7.4 km/h 78 % 0 mm
10:50 18.8 °C 14.8 °C 1013.8 hPa South 6.3 km/h 13 km/h 78 % 0 mm
10:53 18.8 °C 14.7 °C 1013.8 hPa South 10.3 km/h 16.1 km/h 77 % 0 mm
10:54 18.8 °C 14.7 °C 1013.8 hPa SSW 13.8 km/h 18.5 km/h 77 % 0 mm
10:59 18.7 °C 14.6 °C 1013.4 hPa SSW 10.5 km/h 12.9 km/h 77 % 0 mm
11:00 18.7 °C 14.8 °C 1013.4 hPa SSW 12.1 km/h 16.7 km/h 78 % 0 mm
11:04 19 °C 14.9 °C 1013.4 hPa South 11.6 km/h 16.7 km/h 77 % 0 mm
11:12 19.6 °C 15 °C 1013.4 hPa South 7.2 km/h 9.3 km/h 75 % 0 mm
11:16 19.9 °C 14.9 °C 1013.4 hPa South 8.4 km/h 11.1 km/h 73 % 0 mm
11:19 20.1 °C 14.8 °C 1013.4 hPa South 8.7 km/h 11.1 km/h 72 % 0 mm
11:20 20.1 °C 14.7 °C 1013.4 hPa South 9.8 km/h 13 km/h 71 % 0 mm
11:21 20.1 °C 14.7 °C 1013.4 hPa South 9.3 km/h 13 km/h 71 % 0 mm
11:22 20.2 °C 14.7 °C 1013.4 hPa South 10.8 km/h 14.5 km/h 71 % 0 mm
11:24 20.2 °C 14.8 °C 1013.4 hPa South 7.6 km/h 9.3 km/h 71 % 0 mm
11:26 20.4 °C 14.9 °C 1013.1 hPa South 2.7 km/h 13 km/h 71 % 0 mm
11:27 20.6 °C 15.2 °C 1013.4 hPa South 5 km/h 9.3 km/h 71 % 0 mm
11:30 20.9 °C 15 °C 1013.1 hPa South 10 km/h 13 km/h 69 % 0 mm
11:33 20.9 °C 14.6 °C 1013.1 hPa South 7.4 km/h 13 km/h 67 % 0 mm
11:38 21.2 °C 14.8 °C 1013.1 hPa South 5.1 km/h 9.3 km/h 67 % 0 mm
11:40 21.3 °C 14.7 °C 1013.1 hPa South 7.6 km/h 13 km/h 66 % 0 mm
11:44 21.5 °C 14.9 °C 1013.1 hPa South 8.5 km/h 11.1 km/h 66 % 0 mm
11:46 21.5 °C 14.7 °C 1013.1 hPa South 9.3 km/h 12.9 km/h 65 % 0 mm
11:50 21.6 °C 14.7 °C 1013.1 hPa South 5.6 km/h 9.3 km/h 65 % 0 mm
11:52 21.7 °C 14.8 °C 1013.1 hPa South 3.4 km/h 5.6 km/h 65 % 0 mm
11:53 21.8 °C 14.9 °C 1013.1 hPa South 2.7 km/h 5.6 km/h 65 % 0 mm
11:56 22.2 °C 14.8 °C 1012.8 hPa South 6.8 km/h 6.8 km/h 63 % 0 mm
11:59 22.4 °C 15 °C 1012.8 hPa South 4.5 km/h 9.3 km/h 63 % 0 mm
12:00 22.4 °C 15.1 °C 1012.8 hPa South 5.1 km/h 9.3 km/h 63 % 0 mm
12:02 22.6 °C 14.7 °C 1012.8 hPa South 5.1 km/h 5.6 km/h 61 % 0 mm
12:03 22.6 °C 14.7 °C 1012.8 hPa South 4.5 km/h 5.6 km/h 61 % 0 mm
12:04 22.7 °C 14.6 °C 1012.8 hPa South 5.5 km/h 9.3 km/h 60 % 0 mm
12:05 22.8 °C 14.6 °C 1012.8 hPa South 4.7 km/h 5.6 km/h 60 % 0 mm
12:06 22.8 °C 14.7 °C 1012.8 hPa South 2.6 km/h 5.6 km/h 60 % 0 mm
12:07 22.9 °C 14.7 °C 1012.8 hPa South 1.8 km/h 9.7 km/h 60 % 0 mm
12:08 23 °C 14.8 °C 1012.8 hPa South 8.5 km/h 9.3 km/h 60 % 0 mm
12:09 23.3 °C 14.8 °C 1012.8 hPa South 6.1 km/h 11.1 km/h 59 % 0 mm
12:10 23.4 °C 14.9 °C 1012.8 hPa South 3.9 km/h 5.6 km/h 59 % 0 mm
12:11 23.5 °C 14.8 °C 1012.8 hPa South 1.4 km/h 5.6 km/h 58 % 0 mm
12:12 23.7 °C 14.9 °C 1012.8 hPa South 4.5 km/h 8 km/h 58 % 0 mm
12:14 23.8 °C 14.7 °C 1012.4 hPa South 3.1 km/h 5.6 km/h 57 % 0 mm
12:19 24.2 °C 14.6 °C 1012.4 hPa South 2.6 km/h 7.4 km/h 55 % 0 mm
12:21 24.3 °C 14.7 °C 1012.4 hPa South 3.2 km/h 5.6 km/h 55 % 0 mm
12:25 24.7 °C 14.2 °C 1012.4 hPa Calm     52 % 0 mm
12:28 25 °C 14.2 °C 1012.1 hPa South 1.3 km/h 3.7 km/h 51 % 0 mm
12:31 25.2 °C 14 °C 1012.1 hPa South 0.2 km/h 1.9 km/h 50 % 0 mm
12:33 25.2 °C 14 °C 1012.1 hPa South 1.6 km/h 3.7 km/h 50 % 0 mm
12:36 25.3 °C 14.2 °C 1012.1 hPa South 2.6 km/h 6.4 km/h 50 % 0 mm
12:38 25.4 °C 13.9 °C 1012.1 hPa South 4.2 km/h 5.6 km/h 49 % 0 mm
12:40 25.6 °C 14.1 °C 1012.1 hPa South 1.8 km/h 3.7 km/h 49 % 0 mm
12:43 25.6 °C 14.1 °C 1011.7 hPa South 0.8 km/h 3.7 km/h 49 % 0 mm
12:44 25.7 °C 14.2 °C 1011.7 hPa South 1 km/h 4.8 km/h 49 % 0 mm
12:49 25.9 °C 14.1 °C 1011.7 hPa Calm     48 % 0 mm
12:51 25.9 °C 13.8 °C 1011.7 hPa South 2.6 km/h 5.6 km/h 47 % 0 mm
12:56 26 °C 13.5 °C 1011.7 hPa South 2.9 km/h 7.4 km/h 46 % 0 mm
12:57 26 °C 13.5 °C 1011.7 hPa South 1.8 km/h 5.6 km/h 46 % 0 mm
12:58 26.1 °C 13.9 °C 1011.7 hPa South 0.3 km/h 1.9 km/h 47 % 0 mm
12:59 26.1 °C 13.6 °C 1011.7 hPa South 1.3 km/h 1.9 km/h 46 % 0 mm
13:03 26.1 °C 13.6 °C 1011.7 hPa South 2.9 km/h 3.7 km/h 46 % 0 mm
13:08 26.1 °C 13.6 °C 1011.4 hPa South 3.7 km/h 5.6 km/h 46 % 0 mm
13:11 26.2 °C 13.6 °C 1011.4 hPa South 3.2 km/h 6.4 km/h 46 % 0 mm
13:16 26.3 °C 13.7 °C 1011.4 hPa Calm   3.7 km/h 46 % 0 mm
13:17 26.3 °C 13.8 °C 1011.4 hPa South 0.8 km/h 3.7 km/h 46 % 0 mm
13:19 26.5 °C 13.6 °C 1011.4 hPa South 0.5 km/h 1.9 km/h 45 % 0 mm
13:20 26.6 °C 13.7 °C 1011.4 hPa South 1 km/h 3.7 km/h 45 % 0 mm
13:25 26.9 °C 13.7 °C 1011.1 hPa South 4.7 km/h 5.6 km/h 44 % 0 mm
13:26 27 °C 13.3 °C 1011.1 hPa South 1.8 km/h 5.6 km/h 43 % 0 mm
13:29 27.3 °C 13.2 °C 1011.1 hPa South 0.8 km/h 3.7 km/h 42 % 0 mm
13:32 27.8 °C 13.7 °C 1011.1 hPa South 1.1 km/h 3.7 km/h 42 % 0 mm
13:33 27.8 °C 13.7 °C 1011.1 hPa South 0.8 km/h 3.7 km/h 42 % 0 mm
13:35 28.1 °C 13.6 °C 1011.1 hPa South 3.2 km/h 5.6 km/h 41 % 0 mm
13:38 28.4 °C 13.5 °C 1011.1 hPa South 4 km/h 5.6 km/h 40 % 0 mm
13:41 28.5 °C 13.2 °C 1011.1 hPa South 4.5 km/h 9.7 km/h 39 % 0 mm
13:44 28.8 °C 13.1 °C 1011.1 hPa South 7.4 km/h 8 km/h 38 % 0 mm
13:48 29.1 °C 12.9 °C 1011.1 hPa South 3.2 km/h 5.6 km/h 37 % 0 mm
13:49 29.2 °C 13.1 °C 1011.1 hPa South 1.1 km/h 5.6 km/h 37 % 0 mm
13:52 29.6 °C 12.9 °C 1010.7 hPa South 2.3 km/h 5.6 km/h 36 % 0 mm
13:53 29.7 °C 12.2 °C 1010.7 hPa South 0.6 km/h 3.2 km/h 34 % 0 mm
13:54 29.9 °C 12.8 °C 1010.7 hPa South 2.9 km/h 5.6 km/h 35 % 0 mm
13:56 30.1 °C 12.5 °C 1010.7 hPa South 3.7 km/h 8 km/h 34 % 0 mm
14:01 30.5 °C 11.9 °C 1010.7 hPa SW 7.9 km/h 11.1 km/h 32 % 0 mm
14:06 30.4 °C 12.3 °C 1010.7 hPa North 4.8 km/h 9.3 km/h 33 % 0 mm
14:11 30.6 °C 12 °C 1010.4 hPa North 5.5 km/h 7.4 km/h 32 % 0 mm
14:14 30.6 °C 12.1 °C 1010.4 hPa SW 1.8 km/h 5.6 km/h 32 % 0 mm
14:18 30.9 °C 11.8 °C 1010.4 hPa SW 5.3 km/h 7.4 km/h 31 % 0 mm
14:20 30.9 °C 11.8 °C 1010.4 hPa WSW 8.2 km/h 8.2 km/h 31 % 0 mm
14:26 31 °C 10.9 °C 1010.4 hPa WNW 10.3 km/h 14.8 km/h 29 % 0 mm
14:27 30.9 °C 10.8 °C 1010.4 hPa WNW 6.3 km/h 14.8 km/h 29 % 0 mm
14:31 30.9 °C 10.8 °C 1010 hPa North 9.2 km/h 18.5 km/h 29 % 0 mm
14:32 31 °C 10.9 °C 1010 hPa WNW 8.2 km/h 11.1 km/h 29 % 0 mm
14:33 31 °C 10.3 °C 1010.4 hPa WNW 9.7 km/h 13 km/h 28 % 0 mm
14:34 31 °C 10.3 °C 1010.4 hPa WNW 10.1 km/h 13 km/h 28 % 0 mm
14:35 31 °C 10.9 °C 1010 hPa WNW 9.5 km/h 14.8 km/h 29 % 0 mm
14:39 30.9 °C 10.3 °C 1010 hPa NW 11.3 km/h 16.7 km/h 28 % 0 mm
14:40 30.9 °C 10.3 °C 1010 hPa NW 9.3 km/h 13 km/h 28 % 0 mm
14:43 31.1 °C 10.9 °C 1010 hPa WNW 13.5 km/h 18.5 km/h 29 % 0 mm
14:44 31.1 °C 10.4 °C 1010 hPa WNW 9.8 km/h 18.5 km/h 28 % 0 mm
14:47 31.1 °C 10.4 °C 1010 hPa NW 11.6 km/h 16.7 km/h 28 % 0 mm
14:48 31 °C 10.3 °C 1010 hPa WNW 8.9 km/h 13 km/h 28 % 0 mm
14:53 31.3 °C 10.6 °C 1010 hPa NW 9.5 km/h 14.8 km/h 28 % 0 mm
14:57 31.2 °C 10.6 °C 1010 hPa North 11.9 km/h 16.7 km/h 28 % 0 mm
15:02 31.1 °C 9.9 °C 1010 hPa North 11.3 km/h 14.8 km/h 27 % 0 mm
15:04 31.1 °C 10.4 °C 1010 hPa WNW 10.6 km/h 18.5 km/h 28 % 0 mm
15:09 31.4 °C 10.7 °C 1010 hPa WNW 1.6 km/h 5.6 km/h 28 % 0 mm
15:10 31.6 °C 10.8 °C 1009.7 hPa North 3.9 km/h 5.6 km/h 28 % 0 mm
15:15 31.8 °C 10.4 °C 1009.7 hPa WNW 3.5 km/h 7.4 km/h 27 % 0 mm
15:16 31.8 °C 10.5 °C 1009.7 hPa WNW 4.8 km/h 6.4 km/h 27 % 0 mm
15:17 31.8 °C 10.5 °C 1010 hPa WNW 9.7 km/h 12.9 km/h 27 % 0 mm
15:18 31.8 °C 10.4 °C 1010 hPa WNW 11.1 km/h 13 km/h 27 % 0 mm
15:23 31.5 °C 10.2 °C 1010 hPa WNW 9.8 km/h 13 km/h 27 % 0 mm
15:24 31.5 °C 10.2 °C 1010 hPa WNW 5.8 km/h 11.1 km/h 27 % 0 mm
15:29 31.6 °C 10.3 °C 1010 hPa North 6.8 km/h 9.3 km/h 27 % 0 mm
15:31 31.7 °C 10.4 °C 1009.7 hPa North 3.5 km/h 5.6 km/h 27 % 0 mm
15:36 31.8 °C 9.9 °C 1009.7 hPa West 12.4 km/h 16.7 km/h 26 % 0 mm
15:37 31.7 °C 9.8 °C 1009.7 hPa North 11.1 km/h 14.8 km/h 26 % 0 mm
15:42 31.7 °C 10.4 °C 1009.7 hPa West 10.3 km/h 13 km/h 27 % 0 mm
15:44 31.6 °C 10.3 °C 1009.7 hPa West 6.6 km/h 9.3 km/h 27 % 0 mm
15:49 31.8 °C 9.9 °C 1009.7 hPa West 2.4 km/h 5.6 km/h 26 % 0 mm
15:51 31.9 °C 10 °C 1009.7 hPa Calm     26 % 0 mm
15:55 32 °C 10.7 °C 1009.7 hPa WSW 7.1 km/h 9.3 km/h 27 % 0 mm
15:57 32 °C 11.7 °C 1009.7 hPa SW 7.1 km/h 8 km/h 29 % 0 mm
15:58 31.9 °C 12.2 °C 1009.7 hPa SW 7.2 km/h 9.3 km/h 30 % 0 mm
16:02 31.3 °C 12.2 °C 1009.4 hPa South 8.5 km/h 11.3 km/h 31 % 0 mm
16:07 30.7 °C 12.1 °C 1009.4 hPa South 9.2 km/h 11.1 km/h 32 % 0 mm
16:12 30.5 °C 11.9 °C 1009.4 hPa SSE 4.3 km/h 9.3 km/h 32 % 0 mm
16:15 30.5 °C 12.4 °C 1009.4 hPa SSE 6.9 km/h 12.9 km/h 33 % 0 mm
16:22 30.3 °C 13.1 °C 1009.4 hPa SSE 10.1 km/h 14.8 km/h 35 % 0 mm
16:23 30.2 °C 13.1 °C 1009.4 hPa SSE 10 km/h 14.8 km/h 35 % 0 mm
16:28 29.7 °C 13 °C 1009.4 hPa SSE 7.1 km/h 9.3 km/h 36 % 0 mm
16:32 29.4 °C 12.8 °C 1009.4 hPa SSE 7.9 km/h 11.1 km/h 36 % 0 mm
16:38 28.9 °C 12.7 °C 1009.4 hPa SSE 8.7 km/h 9.3 km/h 37 % 0 mm
16:39 28.8 °C 12.7 °C 1009.4 hPa SSE 8.5 km/h 14.8 km/h 37 % 0 mm
16:44 28.7 °C 13 °C 1009.4 hPa SSE 9.8 km/h 13 km/h 38 % 0 mm
16:48 28.7 °C 13.3 °C 1009 hPa SSE 1.9 km/h 5.6 km/h 39 % 0 mm
16:53 28.6 °C 13.2 °C 1009 hPa SSE 6.8 km/h 9.3 km/h 39 % 0 mm
16:58 28.6 °C 13.2 °C 1009 hPa SSE 4.5 km/h 8 km/h 39 % 0 mm
17:01 28.5 °C 13.2 °C 1009.4 hPa SSE 8.4 km/h 9.7 km/h 39 % 0 mm
17:02 28.5 °C 13.2 °C 1009 hPa SSE 10 km/h 13 km/h 39 % 0 mm
17:04 28.4 °C 13.1 °C 1009.4 hPa SSE 6.3 km/h 13 km/h 39 % 0 mm
17:08 28.3 °C 13.4 °C 1009 hPa SSE 6.6 km/h 11.1 km/h 40 % 0 mm
17:13 28.1 °C 13.2 °C 1009 hPa SSE 5.1 km/h 11.1 km/h 40 % 0 mm
17:18 27.9 °C 13.4 °C 1009 hPa SSE 4 km/h 9.7 km/h 41 % 0 mm
17:21 27.9 °C 13.4 °C 1009 hPa SSE 3.7 km/h 5.6 km/h 41 % 0 mm
17:23 27.8 °C 13.3 °C 1009 hPa SSE 5.1 km/h 11.3 km/h 41 % 0 mm
17:26 27.7 °C 13.3 °C 1009 hPa SSE 1.6 km/h 5.6 km/h 41 % 0 mm
17:29 27.6 °C 13.6 °C 1009 hPa SSE 0.8 km/h 5.6 km/h 42 % 0 mm
17:30 27.6 °C 13.6 °C 1009 hPa SSE 0.6 km/h 5.6 km/h 42 % 0 mm
17:35 27.4 °C 13.3 °C 1009 hPa SSE 0.2 km/h 3.2 km/h 42 % 0 mm
17:36 27.3 °C 13.3 °C 1009 hPa SSE 2.9 km/h 5.6 km/h 42 % 0 mm
17:41 27.1 °C 13.4 °C 1009 hPa SSE 3.7 km/h 7.4 km/h 43 % 0 mm
17:43 27 °C 13.3 °C 1009.4 hPa SSE 5.8 km/h 7.4 km/h 43 % 0 mm
17:44 26.9 °C 13.7 °C 1009 hPa SSE 4.7 km/h 7.4 km/h 44 % 0 mm
17:47 26.8 °C 13.6 °C 1009.4 hPa SSE 3.9 km/h 5.6 km/h 44 % 0 mm
17:48 26.7 °C 13.4 °C 1009.4 hPa SSE 4.8 km/h 9.3 km/h 44 % 0 mm
17:52 26.5 °C 13.6 °C 1009.4 hPa SSE 5.8 km/h 9.3 km/h 45 % 0 mm
17:57 26.3 °C 13.4 °C 1009 hPa SSE 5 km/h 5.6 km/h 45 % 0 mm
18:02 26.2 °C 13.6 °C 1009 hPa SSE 1.4 km/h 5.6 km/h 46 % 0 mm
18:05 26.1 °C 13.6 °C 1009 hPa SSE 1.1 km/h 3.7 km/h 46 % 0 mm
18:08 26 °C 13.5 °C 1009 hPa SSE 0.8 km/h 3.7 km/h 46 % 0 mm
18:10 25.9 °C 13.4 °C 1009 hPa SSE 5.5 km/h 7.4 km/h 46 % 0 mm
18:15 25.7 °C 13.6 °C 1009 hPa SSE 8.5 km/h 9.7 km/h 47 % 0 mm
18:16 25.7 °C 13.6 °C 1009 hPa SSE 7.6 km/h 9.3 km/h 47 % 0 mm
18:19 25.7 °C 13.5 °C 1009.4 hPa SSE 9.2 km/h 11.3 km/h 47 % 0 mm
18:24 25.5 °C 13.7 °C 1009.4 hPa SSE 9.2 km/h 18.5 km/h 48 % 0 mm
18:29 25.4 °C 13.9 °C 1009.4 hPa South 9.5 km/h 16.1 km/h 49 % 0 mm
18:32 25.3 °C 13.8 °C 1009.4 hPa South 8.9 km/h 11.3 km/h 49 % 0 mm
18:34 25.2 °C 13.7 °C 1009 hPa South 8 km/h 14.8 km/h 49 % 0 mm
18:35 25.2 °C 14 °C 1009.4 hPa South 7.4 km/h 11.1 km/h 50 % 0 mm
18:39 24.9 °C 13.8 °C 1009.4 hPa South 4 km/h 11.1 km/h 50 % 0 mm
18:42 24.8 °C 14 °C 1009.4 hPa South 2.6 km/h 7.4 km/h 51 % 0 mm
18:43 24.8 °C 13.9 °C 1009.4 hPa South 4.8 km/h 9.7 km/h 51 % 0 mm
18:46 24.7 °C 14.2 °C 1009.4 hPa South 3.7 km/h 6.4 km/h 52 % 0 mm
18:49 24.5 °C 14 °C 1009.4 hPa South 11.4 km/h 16.7 km/h 52 % 0 mm
18:54 24.3 °C 14.4 °C 1009.4 hPa South 2.7 km/h 13 km/h 54 % 0 mm
18:59 24 °C 14.1 °C 1009.4 hPa South 2.6 km/h 11.1 km/h 54 % 0 mm
19:01 23.8 °C 14.2 °C 1009.4 hPa South 4.7 km/h 6.4 km/h 55 % 0 mm
19:02 23.8 °C 14.2 °C 1009.4 hPa South 6.3 km/h 9.3 km/h 55 % 0 mm
19:10 23.4 °C 14.1 °C 1009.4 hPa South 7.4 km/h 9.3 km/h 56 % 0 mm
19:15 23.2 °C 14.2 °C 1009.4 hPa South 3.2 km/h 9.3 km/h 57 % 0 mm
19:18 23.1 °C 14.1 °C 1009.4 hPa South 0.2 km/h 1.9 km/h 57 % 0 mm
19:19 23.1 °C 14.1 °C 1009.4 hPa Calm   1.9 km/h 57 % 0 mm
19:24 22.8 °C 14.1 °C 1009.4 hPa South 4.3 km/h 5.6 km/h 58 % 0 mm
19:25 22.7 °C 14.1 °C 1009.4 hPa South 5.8 km/h 5.8 km/h 58 % 0 mm
19:29 22.6 °C 14.1 °C 1009.4 hPa South 4.3 km/h 7.4 km/h 59 % 0 mm
19:30 22.5 °C 14.1 °C 1009.4 hPa South 5 km/h 6.4 km/h 59 % 0 mm
19:35 22.4 °C 14 °C 1009.4 hPa South 4.2 km/h 5.6 km/h 59 % 0 mm
19:38 22.3 °C 14.1 °C 1009.4 hPa South 1.9 km/h 5.6 km/h 60 % 0 mm
19:43 22 °C 13.9 °C 1009 hPa South 4.7 km/h 5.6 km/h 60 % 0 mm
19:46 21.9 °C 14 °C 1009.4 hPa South 2.9 km/h 5.6 km/h 61 % 0 mm
19:48 21.8 °C 13.9 °C 1009.4 hPa South 3.1 km/h 3.7 km/h 61 % 0 mm
19:53 21.7 °C 14.1 °C 1009 hPa Calm   1.9 km/h 62 % 0 mm
19:58 21.6 °C 13.9 °C 1009 hPa Calm     62 % 0 mm
20:01 21.4 °C 13.8 °C 1009 hPa Calm     62 % 0 mm
20:06 21.2 °C 13.9 °C 1009 hPa North 1.8 km/h 3.7 km/h 63 % 0 mm
20:08 21.2 °C 13.8 °C 1009 hPa Calm   1.9 km/h 63 % 0 mm
20:13 20.9 °C 14.1 °C 1008.7 hPa Calm     65 % 0 mm
20:14 20.9 °C 14.1 °C 1008.7 hPa Calm     65 % 0 mm
20:16 20.8 °C 14 °C 1008.7 hPa Calm     65 % 0 mm
20:17 20.8 °C 14 °C 1008.7 hPa Calm     65 % 0 mm
20:22 20.8 °C 13.9 °C 1008.7 hPa Calm     65 % 0 mm
20:27 20.6 °C 14.1 °C 1008.7 hPa Calm     66 % 0 mm
20:32 20.5 °C 14.2 °C 1008.7 hPa Calm     67 % 0 mm
20:34 20.5 °C 14.2 °C 1008.7 hPa Calm     67 % 0 mm
20:35 20.5 °C 14.2 °C 1008.7 hPa Calm     67 % 0 mm
20:37 20.5 °C 14.2 °C 1008.7 hPa Calm     67 % 0 mm
20:40 20.4 °C 14.1 °C 1008.7 hPa Calm     67 % 0 mm
20:45 20.3 °C 14 °C 1008.4 hPa Calm     67 % 0 mm
20:48 20.3 °C 14.2 °C 1008.4 hPa Calm     68 % 0 mm
20:49 20.3 °C 14.2 °C 1008.4 hPa Calm     68 % 0 mm
20:54 20.2 °C 14.1 °C 1008.4 hPa Calm     68 % 0 mm
20:59 20.2 °C 14.1 °C 1008.4 hPa Calm     68 % 0 mm
21:04 20.1 °C 14 °C 1008.4 hPa Calm     68 % 0 mm
21:06 20.1 °C 14 °C 1008.4 hPa Calm     68 % 0 mm
21:11 20.1 °C 14.2 °C 1008.4 hPa Calm     69 % 0 mm
21:16 20.1 °C 14.2 °C 1008.4 hPa Calm     69 % 0 mm
21:18 20.1 °C 14.2 °C 1008.4 hPa Calm     69 % 0 mm
21:22 20 °C 14.1 °C 1008 hPa Calm     69 % 0 mm
21:27 19.9 °C 14.1 °C 1008 hPa Calm     69 % 0 mm
21:30 19.8 °C 14.2 °C 1008 hPa Calm     70 % 0 mm
21:34 19.8 °C 14.2 °C 1008 hPa Calm     70 % 0 mm
21:39 19.8 °C 14.2 °C 1008 hPa Calm     70 % 0 mm
21:44 19.8 °C 14.2 °C 1008 hPa Calm     70 % 0 mm
21:47 19.8 °C 14.2 °C 1008 hPa Calm     70 % 0 mm
21:50 19.8 °C 14.2 °C 1008 hPa Calm     70 % 0 mm
21:55 19.8 °C 14.4 °C 1008 hPa Calm     71 % 0 mm
21:57 19.8 °C 14.4 °C 1008 hPa Calm     71 % 0 mm
22:02 19.8 °C 14.2 °C 1008 hPa Calm     70 % 0 mm
22:06 19.8 °C 14.4 °C 1007.7 hPa Calm     71 % 0 mm
22:11 19.8 °C 14.4 °C 1007.7 hPa Calm     71 % 0 mm
22:16 19.7 °C 14.3 °C 1007.7 hPa Calm     71 % 0 mm
22:17 19.7 °C 14.3 °C 1007.7 hPa Calm     71 % 0 mm
22:20 19.7 °C 14.3 °C 1007.7 hPa Calm   3.7 km/h 71 % 0 mm
22:24 19.6 °C 14.2 °C 1007.7 hPa Calm     71 % 0 mm
22:29 19.4 °C 14.1 °C 1007.7 hPa Calm     71 % 0 mm
22:34 19.4 °C 14 °C 1007.7 hPa Calm     71 % 0 mm
22:39 19.3 °C 14.1 °C 1007.3 hPa Calm     72 % 0 mm
22:44 19.2 °C 14.1 °C 1007.3 hPa Calm     72 % 0 mm
22:49 19.2 °C 14 °C 1007.3 hPa Calm     72 % 0 mm
22:54 19.1 °C 13.9 °C 1007.3 hPa Calm     72 % 0 mm
22:59 18.9 °C 13.9 °C 1007 hPa Calm     73 % 0 mm
23:04 18.8 °C 13.8 °C 1007 hPa Calm     73 % 0 mm
23:09 18.7 °C 13.8 °C 1007 hPa Calm     73 % 0 mm
23:12 18.7 °C 13.8 °C 1007 hPa South 2.3 km/h 3.7 km/h 73 % 0 mm
23:14 18.7 °C 13.7 °C 1007 hPa South 3.4 km/h 5.6 km/h 73 % 0 mm
23:19 18.7 °C 13.8 °C 1007 hPa South 2.6 km/h 3.7 km/h 73 % 0 mm
23:21 18.7 °C 13.8 °C 1006.7 hPa South 1.1 km/h 3.2 km/h 73 % 0 mm
23:26 18.9 °C 13.3 °C 1006.7 hPa South 4.8 km/h 5.6 km/h 70 % 0 mm
23:31 20 °C 12.2 °C 1006.7 hPa South 3.9 km/h 5.6 km/h 61 % 0 mm
23:36 21.2 °C 10.7 °C 1006.3 hPa SSW 5.5 km/h 9.3 km/h 51 % 0 mm
23:45 22.9 °C 9 °C 1006.3 hPa SW 8.9 km/h 13 km/h 41 % 0 mm
23:50 23.9 °C 8.3 °C 1006.3 hPa WSW 8.4 km/h 11.1 km/h 37 % 0 mm
23:55 24.3 °C 8.2 °C 1006 hPa West 10.1 km/h 18.5 km/h 36 % 0 mm
Ararat Weather
Compliments of Weather Underground - 4.75 mb
Click here to send mail.


ABOUT

Live weather data from Ararat, Victoria, Australia, 3377
Data uploaded from Cumulus every 5 minutes to Weather Underground.
This site then downloads the raw data for formatting and display.
Metric and imperial data can be displayed. Graphs and historical data available.
Includes Sun and Moon times and rain image live from BOM.

Check out Ararat Weather on Facebook, Twitter and Google +

Help support ongoing costs by checking out the ads





Follow @AraratWeather